sensor_id;sensor_type;location;lat;lon;timestamp;pressure;altitude;pressure_sealevel;temperature;humidity
24752;BME280;27246;52.376;4.628;2022-08-01T00:04:32;101542.91;;;18.21;100.00
24752;BME280;27246;52.376;4.628;2022-08-01T00:09:34;101545.72;;;18.21;100.00
24752;BME280;27246;52.376;4.628;2022-08-01T00:14:36;101548.25;;;18.23;100.00
24752;BME280;27246;52.376;4.628;2022-08-01T00:19:38;101549.56;;;18.20;100.00
24752;BME280;27246;52.376;4.628;2022-08-01T00:24:39;101544.44;;;18.17;100.00
24752;BME280;27246;52.376;4.628;2022-08-01T00:29:41;101564.16;;;18.15;100.00
24752;BME280;27246;52.376;4.628;2022-08-01T00:35:03;101559.66;;;18.14;100.00
24752;BME280;27246;52.376;4.628;2022-08-01T00:40:07;101561.38;;;18.15;100.00
24752;BME280;27246;52.376;4.628;2022-08-01T00:45:10;101566.94;;;18.15;100.00
24752;BME280;27246;52.376;4.628;2022-08-01T00:50:13;101567.38;;;18.12;100.00
24752;BME280;27246;52.376;4.628;2022-08-01T00:55:15;101565.88;;;18.10;100.00
24752;BME280;27246;52.376;4.628;2022-08-01T01:00:20;101569.97;;;18.07;100.00
24752;BME280;27246;52.376;4.628;2022-08-01T01:05:28;101570.16;;;18.12;100.00
24752;BME280;27246;52.376;4.628;2022-08-01T01:10:55;101571.25;;;18.11;100.00
24752;BME280;27246;52.376;4.628;2022-08-01T01:16:00;101562.03;;;18.11;100.00
24752;BME280;27246;52.376;4.628;2022-08-01T01:31:27;101548.09;;;18.04;100.00
24752;BME280;27246;52.376;4.628;2022-08-01T01:36:31;101546.81;;;18.00;100.00
24752;BME280;27246;52.376;4.628;2022-08-01T01:41:36;101558.19;;;18.05;100.00
24752;BME280;27246;52.376;4.628;2022-08-01T01:46:40;101556.66;;;18.03;100.00
24752;BME280;27246;52.376;4.628;2022-08-01T01:51:44;101563.53;;;18.00;100.00
24752;BME280;27246;52.376;4.628;2022-08-01T01:57:05;101563.53;;;18.00;100.00
24752;BME280;27246;52.376;4.628;2022-08-01T02:02:09;101562.25;;;17.96;100.00
24752;BME280;27246;52.376;4.628;2022-08-01T02:07:18;101565.69;;;17.98;100.00
24752;BME280;27246;52.376;4.628;2022-08-01T02:12:21;101565.28;;;18.01;100.00
24752;BME280;27246;52.376;4.628;2022-08-01T02:17:26;101566.53;;;17.98;100.00
24752;BME280;27246;52.376;4.628;2022-08-01T02:22:34;101568.91;;;18.02;100.00
24752;BME280;27246;52.376;4.628;2022-08-01T02:27:46;101568.47;;;17.98;100.00
24752;BME280;27246;52.376;4.628;2022-08-01T02:32:54;101571.91;;;18.00;100.00
24752;BME280;27246;52.376;4.628;2022-08-01T02:38:01;101562.06;;;17.97;100.00
24752;BME280;27246;52.376;4.628;2022-08-01T02:43:05;101578.13;;;17.95;100.00
24752;BME280;27246;52.376;4.628;2022-08-01T02:48:12;101567.84;;;17.96;100.00
24752;BME280;27246;52.376;4.628;2022-08-01T02:53:16;101567.41;;;17.99;100.00
24752;BME280;27246;52.376;4.628;2022-08-01T02:58:20;101567.84;;;17.96;100.00
24752;BME280;27246;52.376;4.628;2022-08-01T03:03:30;101581.13;;;17.94;100.00
24752;BME280;27246;52.376;4.628;2022-08-01T03:08:33;101584.13;;;17.92;100.00
24752;BME280;27246;52.376;4.628;2022-08-01T03:13:36;101584.56;;;17.96;100.00
24752;BME280;27246;52.376;4.628;2022-08-01T03:18:39;101590.34;;;17.94;100.00
24752;BME280;27246;52.376;4.628;2022-08-01T03:23:45;101592.94;;;17.83;100.00
24752;BME280;27246;52.376;4.628;2022-08-01T03:28:48;101592.72;;;17.91;100.00
24752;BME280;27246;52.376;4.628;2022-08-01T03:33:50;101590.34;;;17.94;100.00
24752;BME280;27246;52.376;4.628;2022-08-01T03:38:52;101586.72;;;17.94;100.00
24752;BME280;27246;52.376;4.628;2022-08-01T03:44:03;101592.06;;;17.95;100.00
24752;BME280;27246;52.376;4.628;2022-08-01T03:49:11;101594.88;;;17.89;100.00
24752;BME280;27246;52.376;4.628;2022-08-01T03:54:21;101596.78;;;17.88;100.00
24752;BME280;27246;52.376;4.628;2022-08-01T03:59:24;101600.00;;;17.92;100.00
24752;BME280;27246;52.376;4.628;2022-08-01T04:04:28;101607.72;;;17.90;100.00
24752;BME280;27246;52.376;4.628;2022-08-01T04:09:30;101609.00;;;17.94;100.00
24752;BME280;27246;52.376;4.628;2022-08-01T04:14:32;101604.72;;;17.91;100.00
24752;BME280;27246;52.376;4.628;2022-08-01T04:19:34;101604.53;;;17.93;100.00
24752;BME280;27246;52.376;4.628;2022-08-01T04:24:36;101612.25;;;17.91;100.00
24752;BME280;27246;52.376;4.628;2022-08-01T04:29:38;101619.09;;;17.88;100.00
24752;BME280;27246;52.376;4.628;2022-08-01T04:34:46;101619.31;;;17.87;100.00
24752;BME280;27246;52.376;4.628;2022-08-01T04:39:52;101617.59;;;17.86;100.00
24752;BME280;27246;52.376;4.628;2022-08-01T04:44:54;101620.56;;;17.77;100.00
24752;BME280;27246;52.376;4.628;2022-08-01T04:49:56;101625.69;;;17.74;100.00
24752;BME280;27246;52.376;4.628;2022-08-01T04:54:58;101633.44;;;17.78;100.00
24752;BME280;27246;52.376;4.628;2022-08-01T04:59:59;101642.69;;;17.86;100.00
24752;BME280;27246;52.376;4.628;2022-08-01T05:05:02;101648.91;;;17.88;100.00
24752;BME280;27246;52.376;4.628;2022-08-01T05:10:05;101643.97;;;17.90;100.00
24752;BME280;27246;52.376;4.628;2022-08-01T05:15:07;101646.09;;;17.94;100.00
24752;BME280;27246;52.376;4.628;2022-08-01T05:20:21;101647.19;;;17.87;100.00
24752;BME280;27246;52.376;4.628;2022-08-01T05:25:23;101651.28;;;17.91;100.00
24752;BME280;27246;52.376;4.628;2022-08-01T05:30:45;101657.06;;;17.89;99.15
24752;BME280;27246;52.376;4.628;2022-08-01T05:35:46;101666.06;;;17.85;100.00
24752;BME280;27246;52.376;4.628;2022-08-01T05:40:52;101676.78;;;17.88;98.91
24752;BME280;27246;52.376;4.628;2022-08-01T05:45:53;101675.28;;;17.92;97.33
24752;BME280;27246;52.376;4.628;2022-08-01T05:50:55;101696.66;;;17.71;96.38
24752;BME280;27246;52.376;4.628;2022-08-01T05:56:00;101683.97;;;17.62;97.31
24752;BME280;27246;52.376;4.628;2022-08-01T06:01:03;101690.91;;;17.79;95.89
24752;BME280;27246;52.376;4.628;2022-08-01T06:06:05;101691.50;;;17.68;95.44
24752;BME280;27246;52.376;4.628;2022-08-01T06:11:07;101708.47;;;17.80;94.26
24752;BME280;27246;52.376;4.628;2022-08-01T06:16:14;101707.22;;;17.83;93.63
24752;BME280;27246;52.376;4.628;2022-08-01T06:21:20;101703.78;;;17.94;91.05
24752;BME280;27246;52.376;4.628;2022-08-01T06:26:24;101708.50;;;17.87;90.63
24752;BME280;27246;52.376;4.628;2022-08-01T06:31:27;101701.66;;;18.09;89.65
24752;BME280;27246;52.376;4.628;2022-08-01T06:36:34;101692.00;;;18.05;86.34
24752;BME280;27246;52.376;4.628;2022-08-01T06:41:38;101698.00;;;17.95;86.01
24752;BME280;27246;52.376;4.628;2022-08-01T06:46:43;101702.06;;;17.79;85.41
24752;BME280;27246;52.376;4.628;2022-08-01T06:51:45;101710.38;;;17.73;84.59
24752;BME280;27246;52.376;4.628;2022-08-01T06:56:48;101718.75;;;17.73;84.67
24752;BME280;27246;52.376;4.628;2022-08-01T07:01:50;101717.47;;;17.75;83.46
24752;BME280;27246;52.376;4.628;2022-08-01T07:06:52;101715.38;;;17.97;83.51
24752;BME280;27246;52.376;4.628;2022-08-01T07:11:55;101716.66;;;18.08;81.42
24752;BME280;27246;52.376;4.628;2022-08-01T07:16:58;101721.16;;;17.96;81.66
24752;BME280;27246;52.376;4.628;2022-08-01T07:22:01;101736.84;;;18.24;82.43
24752;BME280;27246;52.376;4.628;2022-08-01T07:27:05;101731.91;;;18.26;80.38
24752;BME280;27246;52.376;4.628;2022-08-01T07:32:24;101739.84;;;18.29;79.33
24752;BME280;27246;52.376;4.628;2022-08-01T07:37:26;101742.41;;;18.30;79.60
24752;BME280;27246;52.376;4.628;2022-08-01T07:42:48;101752.94;;;18.48;79.50
24752;BME280;27246;52.376;4.628;2022-08-01T07:47:50;101764.75;;;18.64;78.20
24752;BME280;27246;52.376;4.628;2022-08-01T07:52:51;101764.94;;;18.69;76.71
24752;BME280;27246;52.376;4.628;2022-08-01T07:57:53;101773.97;;;18.57;74.11
24752;BME280;27246;52.376;4.628;2022-08-01T08:02:55;101780.84;;;18.75;73.46
24752;BME280;27246;52.376;4.628;2022-08-01T08:08:01;101787.28;;;18.82;70.31
24752;BME280;27246;52.376;4.628;2022-08-01T08:13:03;101777.63;;;18.78;69.31
24752;BME280;27246;52.376;4.628;2022-08-01T08:18:06;101784.47;;;18.89;70.53
24752;BME280;27246;52.376;4.628;2022-08-01T08:23:07;101780.59;;;18.96;70.88
24752;BME280;27246;52.376;4.628;2022-08-01T08:28:49;101788.75;;;18.91;72.12
24752;BME280;27246;52.376;4.628;2022-08-01T08:33:51;101788.31;;;19.08;67.29
24752;BME280;27246;52.376;4.628;2022-08-01T08:38:53;101792.41;;;19.12;66.69
24752;BME280;27246;52.376;4.628;2022-08-01T08:43:56;101799.91;;;19.18;66.54
24752;BME280;27246;52.376;4.628;2022-08-01T08:49:02;101806.06;;;19.33;66.56
24752;BME280;27246;52.376;4.628;2022-08-01T08:54:07;101810.94;;;19.51;64.85
24752;BME280;27246;52.376;4.628;2022-08-01T08:59:11;101805.31;;;19.58;62.31
24752;BME280;27246;52.376;4.628;2022-08-01T09:04:14;101806.84;;;19.54;63.15
24752;BME280;27246;52.376;4.628;2022-08-01T09:09:16;101804.56;;;19.44;64.36
24752;BME280;27246;52.376;4.628;2022-08-01T09:14:19;101812.69;;;19.52;64.28
24752;BME280;27246;52.376;4.628;2022-08-01T09:24:41;101818.19;;;19.79;64.88
24752;BME280;27246;52.376;4.628;2022-08-01T09:29:43;101820.59;;;19.62;64.38
24752;BME280;27246;52.376;4.628;2022-08-01T09:34:50;101831.56;;;19.57;62.95
24752;BME280;27246;52.376;4.628;2022-08-01T09:39:55;101833.34;;;19.45;62.63
24752;BME280;27246;52.376;4.628;2022-08-01T09:44:58;101836.06;;;19.71;61.99
24752;BME280;27246;52.376;4.628;2022-08-01T09:50:02;101828.91;;;19.89;62.04
24752;BME280;27246;52.376;4.628;2022-08-01T09:55:12;101831.22;;;19.92;61.23
24752;BME280;27246;52.376;4.628;2022-08-01T10:00:17;101836.13;;;19.96;61.21
24752;BME280;27246;52.376;4.628;2022-08-01T10:05:41;101834.41;;;20.02;59.56
24752;BME280;27246;52.376;4.628;2022-08-01T10:11:10;101837.03;;;19.97;58.99
24752;BME280;27246;52.376;4.628;2022-08-01T10:16:13;101834.75;;;20.12;60.70
24752;BME280;27246;52.376;4.628;2022-08-01T10:21:17;101844.56;;;20.28;60.36
24752;BME280;27246;52.376;4.628;2022-08-01T10:26:42;101837.28;;;20.27;58.20
24752;BME280;27246;52.376;4.628;2022-08-01T10:31:46;101843.09;;;20.26;57.80
24752;BME280;27246;52.376;4.628;2022-08-01T10:36:52;101843.13;;;20.19;57.16
24752;BME280;27246;52.376;4.628;2022-08-01T10:41:54;101858.69;;;20.40;55.81
24752;BME280;27246;52.376;4.628;2022-08-01T10:47:04;101849.31;;;20.28;56.98
24752;BME280;27246;52.376;4.628;2022-08-01T10:52:15;101848.81;;;20.44;54.98
24752;BME280;27246;52.376;4.628;2022-08-01T10:57:21;101849.31;;;20.28;53.97
24752;BME280;27246;52.376;4.628;2022-08-01T11:02:30;101860.44;;;20.41;54.26
24752;BME280;27246;52.376;4.628;2022-08-01T11:07:43;101860.31;;;20.23;54.85
24752;BME280;27246;52.376;4.628;2022-08-01T11:12:51;101866.41;;;20.51;54.60
24752;BME280;27246;52.376;4.628;2022-08-01T11:17:53;101872.53;;;20.35;54.30
24752;BME280;27246;52.376;4.628;2022-08-01T11:33:18;101855.44;;;20.75;53.54
24752;BME280;27246;52.376;4.628;2022-08-01T11:38:25;101859.31;;;20.99;52.38
24752;BME280;27246;52.376;4.628;2022-08-01T11:43:31;101866.69;;;20.93;51.07
24752;BME280;27246;52.376;4.628;2022-08-01T11:48:33;101857.25;;;21.13;51.58
24752;BME280;27246;52.376;4.628;2022-08-01T11:53:45;101852.41;;;21.27;50.61
24752;BME280;27246;52.376;4.628;2022-08-01T11:58:47;101853.88;;;21.29;50.12
24752;BME280;27246;52.376;4.628;2022-08-01T12:03:55;101857.31;;;21.50;51.16
24752;BME280;27246;52.376;4.628;2022-08-01T12:09:15;101854.59;;;21.43;51.61
24752;BME280;27246;52.376;4.628;2022-08-01T12:14:20;101861.00;;;21.50;50.63
24752;BME280;27246;52.376;4.628;2022-08-01T12:19:24;101866.03;;;21.42;51.02
24752;BME280;27246;52.376;4.628;2022-08-01T12:24:26;101860.69;;;21.59;50.51
24752;BME280;27246;52.376;4.628;2022-08-01T12:29:41;101866.84;;;21.67;51.03
24752;BME280;27246;52.376;4.628;2022-08-01T12:34:45;101863.81;;;21.32;50.34
24752;BME280;27246;52.376;4.628;2022-08-01T12:39:46;101871.19;;;21.45;51.15
24752;BME280;27246;52.376;4.628;2022-08-01T12:44:50;101862.53;;;21.83;49.25
24752;BME280;27246;52.376;4.628;2022-08-01T12:49:53;101855.84;;;22.03;49.14
24752;BME280;27246;52.376;4.628;2022-08-01T12:55:12;101864.47;;;22.01;48.03
24752;BME280;27246;52.376;4.628;2022-08-01T13:00:22;101854.19;;;21.95;47.98
24752;BME280;27246;52.376;4.628;2022-08-01T13:05:25;101857.88;;;21.77;48.31
24752;BME280;27246;52.376;4.628;2022-08-01T13:10:28;101850.16;;;21.91;46.83
24752;BME280;27246;52.376;4.628;2022-08-01T13:15:32;101854.50;;;22.05;43.95
24752;BME280;27246;52.376;4.628;2022-08-01T13:20:35;101845.94;;;22.30;43.38
24752;BME280;27246;52.376;4.628;2022-08-01T13:25:54;101845.34;;;22.40;44.65
24752;BME280;27246;52.376;4.628;2022-08-01T13:31:02;101839.28;;;22.43;43.45
24752;BME280;27246;52.376;4.628;2022-08-01T13:36:04;101838.13;;;22.32;41.58
24752;BME280;27246;52.376;4.628;2022-08-01T13:41:07;101843.22;;;22.24;41.07
24752;BME280;27246;52.376;4.628;2022-08-01T13:46:08;101824.19;;;22.26;40.64
24752;BME280;27246;52.376;4.628;2022-08-01T13:51:10;101826.56;;;22.41;42.13
24752;BME280;27246;52.376;4.628;2022-08-01T13:56:28;101829.06;;;22.72;36.72
24752;BME280;27246;52.376;4.628;2022-08-01T14:01:32;101821.28;;;22.86;38.93
24752;BME280;27246;52.376;4.628;2022-08-01T14:06:35;101822.38;;;23.21;39.09
24752;BME280;27246;52.376;4.628;2022-08-01T14:11:38;101814.25;;;23.48;39.21
24752;BME280;27246;52.376;4.628;2022-08-01T14:16:46;101818.91;;;23.66;38.92
24752;BME280;27246;52.376;4.628;2022-08-01T14:21:47;101811.50;;;23.24;36.48
24752;BME280;27246;52.376;4.628;2022-08-01T14:26:49;101805.28;;;23.10;38.36
24752;BME280;27246;52.376;4.628;2022-08-01T14:31:51;101800.50;;;23.34;38.65
24752;BME280;27246;52.376;4.628;2022-08-01T14:36:52;101806.13;;;23.34;38.42
24752;BME280;27246;52.376;4.628;2022-08-01T14:41:57;101805.72;;;23.43;36.10
24752;BME280;27246;52.376;4.628;2022-08-01T14:46:59;101810.88;;;23.34;38.72
24752;BME280;27246;52.376;4.628;2022-08-01T14:52:01;101812.22;;;23.55;34.63
24752;BME280;27246;52.376;4.628;2022-08-01T14:57:30;101819.53;;;23.56;40.59
24752;BME280;27246;52.376;4.628;2022-08-01T15:08:11;101818.78;;;23.72;35.29
24752;BME280;27246;52.376;4.628;2022-08-01T15:13:13;101816.78;;;23.85;37.11
24752;BME280;27246;52.376;4.628;2022-08-01T15:18:15;101816.06;;;23.78;37.60
24752;BME280;27246;52.376;4.628;2022-08-01T15:23:17;101823.72;;;23.82;35.11
24752;BME280;27246;52.376;4.628;2022-08-01T15:28:19;101822.53;;;23.78;34.99
24752;BME280;27246;52.376;4.628;2022-08-01T15:33:21;101812.16;;;23.79;36.82
24752;BME280;27246;52.376;4.628;2022-08-01T15:38:23;101814.09;;;23.78;34.87
24752;BME280;27246;52.376;4.628;2022-08-01T15:43:24;101815.16;;;23.89;36.89
24752;BME280;27246;52.376;4.628;2022-08-01T15:48:28;101815.13;;;24.01;35.47
24752;BME280;27246;52.376;4.628;2022-08-01T15:53:30;101809.41;;;23.84;37.57
24752;BME280;27246;52.376;4.628;2022-08-01T15:58:32;101803.63;;;23.90;37.41
24752;BME280;27246;52.376;4.628;2022-08-01T16:03:34;101794.09;;;23.91;36.30
24752;BME280;27246;52.376;4.628;2022-08-01T16:08:35;101794.94;;;23.92;36.56
24752;BME280;27246;52.376;4.628;2022-08-01T16:13:37;101799.28;;;23.83;37.64
24752;BME280;27246;52.376;4.628;2022-08-01T16:18:39;101795.19;;;23.90;36.16
24752;BME280;27246;52.376;4.628;2022-08-01T16:23:41;101800.97;;;24.12;36.42
24752;BME280;27246;52.376;4.628;2022-08-01T16:28:44;101799.38;;;23.88;37.32
24752;BME280;27246;52.376;4.628;2022-08-01T16:33:49;101792.53;;;23.84;39.01
24752;BME280;27246;52.376;4.628;2022-08-01T16:38:56;101788.63;;;23.85;37.21
24752;BME280;27246;52.376;4.628;2022-08-01T16:43:58;101795.53;;;23.65;37.36
24752;BME280;27246;52.376;4.628;2022-08-01T16:48:59;101783.53;;;23.70;36.20
24752;BME280;27246;52.376;4.628;2022-08-01T16:54:04;101797.38;;;23.60;35.75
24752;BME280;27246;52.376;4.628;2022-08-01T16:59:26;101780.88;;;23.63;35.31
24752;BME280;27246;52.376;4.628;2022-08-01T17:04:29;101790.19;;;23.52;35.69
24752;BME280;27246;52.376;4.628;2022-08-01T17:09:31;101784.84;;;23.39;38.93
24752;BME280;27246;52.376;4.628;2022-08-01T17:14:40;101790.81;;;23.42;36.06
24752;BME280;27246;52.376;4.628;2022-08-01T17:19:43;101790.53;;;23.44;35.45
24752;BME280;27246;52.376;4.628;2022-08-01T17:24:45;101789.94;;;23.42;35.46
24752;BME280;27246;52.376;4.628;2022-08-01T17:29:47;101791.44;;;23.32;35.83
24752;BME280;27246;52.376;4.628;2022-08-01T17:34:50;101790.31;;;23.33;37.24
24752;BME280;27246;52.376;4.628;2022-08-01T17:39:52;101788.41;;;23.34;36.61
24752;BME280;27246;52.376;4.628;2022-08-01T17:44:54;101791.94;;;23.17;36.80
24752;BME280;27246;52.376;4.628;2022-08-01T17:49:57;101795.63;;;23.18;36.28
24752;BME280;27246;52.376;4.628;2022-08-01T17:55:03;101784.38;;;23.18;37.54
24752;BME280;27246;52.376;4.628;2022-08-01T18:00:27;101787.56;;;22.98;37.77
24752;BME280;27246;52.376;4.628;2022-08-01T18:05:30;101786.47;;;22.87;37.98
24752;BME280;27246;52.376;4.628;2022-08-01T18:10:41;101772.06;;;22.84;37.07
24752;BME280;27246;52.376;4.628;2022-08-01T18:15:45;101777.66;;;22.72;38.61
24752;BME280;27246;52.376;4.628;2022-08-01T18:20:51;101774.59;;;22.62;39.76
24752;BME280;27246;52.376;4.628;2022-08-01T18:25:52;101773.81;;;22.43;43.01
24752;BME280;27246;52.376;4.628;2022-08-01T18:30:55;101784.91;;;22.26;46.25
24752;BME280;27246;52.376;4.628;2022-08-01T18:35:57;101788.88;;;22.06;47.00
24752;BME280;27246;52.376;4.628;2022-08-01T18:41:04;101779.75;;;21.92;48.09
24752;BME280;27246;52.376;4.628;2022-08-01T18:46:06;101783.00;;;21.77;47.99
24752;BME280;27246;52.376;4.628;2022-08-01T18:51:07;101784.16;;;21.70;48.30
24752;BME280;27246;52.376;4.628;2022-08-01T18:56:12;101784.28;;;21.45;48.36
24752;BME280;27246;52.376;4.628;2022-08-01T19:01:13;101795.81;;;21.36;48.77
24752;BME280;27246;52.376;4.628;2022-08-01T19:06:15;101804.19;;;21.18;49.36
24752;BME280;27246;52.376;4.628;2022-08-01T19:11:17;101803.72;;;21.21;49.49
24752;BME280;27246;52.376;4.628;2022-08-01T19:16:19;101794.78;;;21.12;49.64
24752;BME280;27246;52.376;4.628;2022-08-01T19:21:20;101799.19;;;21.02;50.09
24752;BME280;27246;52.376;4.628;2022-08-01T19:26:25;101802.06;;;20.95;50.01
24752;BME280;27246;52.376;4.628;2022-08-01T19:31:28;101806.88;;;20.88;50.30
24752;BME280;27246;52.376;4.628;2022-08-01T19:36:55;101811.97;;;20.72;50.99
24752;BME280;27246;52.376;4.628;2022-08-01T19:41:57;101809.91;;;20.61;51.57
24752;BME280;27246;52.376;4.628;2022-08-01T19:47:00;101818.06;;;20.63;51.66
24752;BME280;27246;52.376;4.628;2022-08-01T19:52:02;101819.00;;;20.56;52.11
24752;BME280;27246;52.376;4.628;2022-08-01T19:57:30;101829.66;;;20.41;52.58
24752;BME280;27246;52.376;4.628;2022-08-01T20:02:46;101810.81;;;20.23;53.22
24752;BME280;27246;52.376;4.628;2022-08-01T20:07:49;101810.69;;;20.11;53.69
24752;BME280;27246;52.376;4.628;2022-08-01T20:12:51;101817.19;;;20.05;53.98
24752;BME280;27246;52.376;4.628;2022-08-01T20:17:56;101819.75;;;20.07;54.31
24752;BME280;27246;52.376;4.628;2022-08-01T20:23:06;101821.47;;;20.08;54.38
24752;BME280;27246;52.376;4.628;2022-08-01T20:28:23;101825.63;;;19.92;55.08
24752;BME280;27246;52.376;4.628;2022-08-01T20:33:29;101810.44;;;19.81;55.29
24752;BME280;27246;52.376;4.628;2022-08-01T20:38:31;101817.34;;;19.72;55.28
24752;BME280;27246;52.376;4.628;2022-08-01T20:43:38;101810.72;;;19.60;55.36
24752;BME280;27246;52.376;4.628;2022-08-01T20:48:40;101815.47;;;19.59;55.50
24752;BME280;27246;52.376;4.628;2022-08-01T20:53:46;101821.94;;;19.46;55.73
24752;BME280;27246;52.376;4.628;2022-08-01T20:59:10;101816.56;;;19.45;55.71
24752;BME280;27246;52.376;4.628;2022-08-01T21:04:57;101821.31;;;19.37;55.80
24752;BME280;27246;52.376;4.628;2022-08-01T21:10:08;101811.88;;;19.32;55.89
24752;BME280;27246;52.376;4.628;2022-08-01T21:20:34;101814.91;;;19.24;56.90
24752;BME280;27246;52.376;4.628;2022-08-01T21:25:40;101803.81;;;19.04;57.62
24752;BME280;27246;52.376;4.628;2022-08-01T21:30:42;101803.59;;;18.98;57.20
24752;BME280;27246;52.376;4.628;2022-08-01T21:35:58;101797.13;;;19.05;56.89
24752;BME280;27246;52.376;4.628;2022-08-01T21:41:07;101792.19;;;18.93;57.00
24752;BME280;27246;52.376;4.628;2022-08-01T21:46:09;101795.63;;;18.95;56.72
24752;BME280;27246;52.376;4.628;2022-08-01T21:51:34;101803.84;;;18.84;56.15
24752;BME280;27246;52.376;4.628;2022-08-01T22:02:02;101791.38;;;18.73;56.10
24752;BME280;27246;52.376;4.628;2022-08-01T22:07:12;101776.13;;;18.62;56.20
24752;BME280;27246;52.376;4.628;2022-08-01T22:12:16;101775.88;;;18.57;56.18
24752;BME280;27246;52.376;4.628;2022-08-01T22:17:20;101785.56;;;18.48;56.26
24752;BME280;27246;52.376;4.628;2022-08-01T22:22:25;101790.50;;;18.39;55.95
24752;BME280;27246;52.376;4.628;2022-08-01T22:27:47;101781.25;;;18.32;55.61
24752;BME280;27246;52.376;4.628;2022-08-01T22:33:10;101778.03;;;18.28;55.87
24752;BME280;27246;52.376;4.628;2022-08-01T22:38:17;101777.63;;;18.31;55.02
24752;BME280;27246;52.376;4.628;2022-08-01T22:43:37;101771.59;;;18.14;55.83
24752;BME280;27246;52.376;4.628;2022-08-01T22:48:59;101779.53;;;18.17;55.80
24752;BME280;27246;52.376;4.628;2022-08-01T22:54:11;101769.69;;;18.15;55.83
24752;BME280;27246;52.376;4.628;2022-08-01T22:59:19;101769.66;;;18.08;55.75
24752;BME280;27246;52.376;4.628;2022-08-01T23:04:25;101766.00;;;18.01;56.11
24752;BME280;27246;52.376;4.628;2022-08-01T23:09:34;101763.41;;;17.99;56.14
24752;BME280;27246;52.376;4.628;2022-08-01T23:14:57;101761.47;;;18.00;55.90
24752;BME280;27246;52.376;4.628;2022-08-01T23:20:00;101746.25;;;17.89;56.29
24752;BME280;27246;52.376;4.628;2022-08-01T23:25:07;101750.94;;;17.82;56.69
24752;BME280;27246;52.376;4.628;2022-08-01T23:30:10;101745.59;;;17.81;56.78
24752;BME280;27246;52.376;4.628;2022-08-01T23:35:11;101743.19;;;17.77;56.86
24752;BME280;27246;52.376;4.628;2022-08-01T23:40:13;101740.19;;;17.72;56.72
24752;BME280;27246;52.376;4.628;2022-08-01T23:45:15;101740.41;;;17.71;57.10
24752;BME280;27246;52.376;4.628;2022-08-01T23:50:18;101730.38;;;17.83;57.20
24752;BME280;27246;52.376;4.628;2022-08-01T23:55:22;101733.78;;;17.78;56.97
